sensor_id;sensor_type;location;lat;lon;timestamp;temperature;humidity
25170;DHT22;13129;48.012;10.352;2022-11-24T04:32:55;5.00;99.90
25170;DHT22;13129;48.012;10.352;2022-11-24T04:35:21;5.00;99.90
25170;DHT22;13129;48.012;10.352;2022-11-24T04:37:47;5.00;99.90
25170;DHT22;13129;48.012;10.352;2022-11-24T04:40:13;5.00;99.90
25170;DHT22;13129;48.012;10.352;2022-11-24T04:42:39;5.10;99.90
25170;DHT22;13129;48.012;10.352;2022-11-24T04:45:05;5.10;99.90
25170;DHT22;13129;48.012;10.352;2022-11-24T04:47:32;5.10;99.90
25170;DHT22;13129;48.012;10.352;2022-11-24T04:49:57;5.10;99.90
25170;DHT22;13129;48.012;10.352;2022-11-24T04:52:24;5.00;99.90
25170;DHT22;13129;48.012;10.352;2022-11-24T04:54:50;5.00;99.90
25170;DHT22;13129;48.012;10.352;2022-11-24T04:57:21;4.90;99.90
25170;DHT22;13129;48.012;10.352;2022-11-24T04:59:48;4.90;99.90
25170;DHT22;13129;48.012;10.352;2022-11-24T05:02:14;4.90;99.90
25170;DHT22;13129;48.012;10.352;2022-11-24T05:04:39;4.80;99.90
25170;DHT22;13129;48.012;10.352;2022-11-24T05:07:05;4.80;99.90
25170;DHT22;13129;48.012;10.352;2022-11-24T05:09:31;4.70;99.90
25170;DHT22;13129;48.012;10.352;2022-11-24T05:11:56;4.70;99.90
25170;DHT22;13129;48.012;10.352;2022-11-24T05:14:22;4.70;99.90
25170;DHT22;13129;48.012;10.352;2022-11-24T05:16:48;4.70;99.90
25170;DHT22;13129;48.012;10.352;2022-11-24T05:19:14;4.70;99.90
25170;DHT22;13129;48.012;10.352;2022-11-24T05:21:39;4.60;99.90
25170;DHT22;13129;48.012;10.352;2022-11-24T05:24:05;4.60;99.90
25170;DHT22;13129;48.012;10.352;2022-11-24T05:26:31;4.60;99.90
25170;DHT22;13129;48.012;10.352;2022-11-24T05:28:57;4.50;99.90
25170;DHT22;13129;48.012;10.352;2022-11-24T05:31:23;4.50;99.90
25170;DHT22;13129;48.012;10.352;2022-11-24T05:33:49;4.50;99.90
25170;DHT22;13129;48.012;10.352;2022-11-24T05:36:14;4.50;99.90
25170;DHT22;13129;48.012;10.352;2022-11-24T05:39:00;4.50;99.90
25170;DHT22;13129;48.012;10.352;2022-11-24T05:41:26;4.50;99.90
25170;DHT22;13129;48.012;10.352;2022-11-24T05:43:52;4.50;99.90
25170;DHT22;13129;48.012;10.352;2022-11-24T05:46:17;4.50;99.90
25170;DHT22;13129;48.012;10.352;2022-11-24T05:48:43;4.50;99.90
25170;DHT22;13129;48.012;10.352;2022-11-24T05:51:09;4.50;99.90
25170;DHT22;13129;48.012;10.352;2022-11-24T05:53:34;4.50;99.90
25170;DHT22;13129;48.012;10.352;2022-11-24T05:56:03;4.50;99.90
25170;DHT22;13129;48.012;10.352;2022-11-24T05:58:42;4.50;99.90
25170;DHT22;13129;48.012;10.352;2022-11-24T06:01:08;4.50;99.90
25170;DHT22;13129;48.012;10.352;2022-11-24T06:03:34;4.40;99.90
25170;DHT22;13129;48.012;10.352;2022-11-24T06:05:59;4.40;99.90
25170;DHT22;13129;48.012;10.352;2022-11-24T06:08:25;4.40;99.90
25170;DHT22;13129;48.012;10.352;2022-11-24T06:10:50;4.40;99.90
25170;DHT22;13129;48.012;10.352;2022-11-24T06:13:16;4.40;99.90
25170;DHT22;13129;48.012;10.352;2022-11-24T06:15:42;4.40;99.90
25170;DHT22;13129;48.012;10.352;2022-11-24T06:18:07;4.30;99.90
25170;DHT22;13129;48.012;10.352;2022-11-24T06:20:33;4.30;99.90
25170;DHT22;13129;48.012;10.352;2022-11-24T06:22:59;4.30;99.90
25170;DHT22;13129;48.012;10.352;2022-11-24T06:25:25;4.30;99.90
25170;DHT22;13129;48.012;10.352;2022-11-24T06:27:51;4.30;99.90
25170;DHT22;13129;48.012;10.352;2022-11-24T06:30:17;4.20;99.90
25170;DHT22;13129;48.012;10.352;2022-11-24T06:32:42;4.20;99.90
25170;DHT22;13129;48.012;10.352;2022-11-24T06:35:11;4.20;99.90
25170;DHT22;13129;48.012;10.352;2022-11-24T06:37:37;4.20;99.90
25170;DHT22;13129;48.012;10.352;2022-11-24T06:40:04;4.30;99.90
25170;DHT22;13129;48.012;10.352;2022-11-24T06:42:30;4.30;99.90
25170;DHT22;13129;48.012;10.352;2022-11-24T06:44:55;4.40;99.90
25170;DHT22;13129;48.012;10.352;2022-11-24T06:47:21;4.40;99.90
25170;DHT22;13129;48.012;10.352;2022-11-24T06:49:47;4.40;99.90
25170;DHT22;13129;48.012;10.352;2022-11-24T06:52:12;4.40;99.90
25170;DHT22;13129;48.012;10.352;2022-11-24T06:54:38;4.40;99.90
25170;DHT22;13129;48.012;10.352;2022-11-24T06:57:04;4.50;99.90
25170;DHT22;13129;48.012;10.352;2022-11-24T06:59:29;4.50;99.90
25170;DHT22;13129;48.012;10.352;2022-11-24T07:01:55;4.50;99.90
25170;DHT22;13129;48.012;10.352;2022-11-24T07:04:20;4.60;99.90
25170;DHT22;13129;48.012;10.352;2022-11-24T07:06:46;4.70;99.90
25170;DHT22;13129;48.012;10.352;2022-11-24T07:09:12;4.80;99.90
25170;DHT22;13129;48.012;10.352;2022-11-24T07:11:39;4.90;99.90
25170;DHT22;13129;48.012;10.352;2022-11-24T07:14:05;5.00;99.90
25170;DHT22;13129;48.012;10.352;2022-11-24T07:16:31;5.00;99.90
25170;DHT22;13129;48.012;10.352;2022-11-24T07:18:57;5.20;99.90
25170;DHT22;13129;48.012;10.352;2022-11-24T07:21:24;5.20;99.90
25170;DHT22;13129;48.012;10.352;2022-11-24T07:23:51;5.30;99.90
25170;DHT22;13129;48.012;10.352;2022-11-24T07:26:17;5.60;99.90
25170;DHT22;13129;48.012;10.352;2022-11-24T07:28:44;6.20;99.90
25170;DHT22;13129;48.012;10.352;2022-11-24T07:31:11;6.80;99.90
25170;DHT22;13129;48.012;10.352;2022-11-24T07:33:38;7.10;99.90
25170;DHT22;13129;48.012;10.352;2022-11-24T07:36:05;7.80;99.90
25170;DHT22;13129;48.012;10.352;2022-11-24T07:38:34;8.00;99.90
25170;DHT22;13129;48.012;10.352;2022-11-24T07:41:19;8.20;99.90
25170;DHT22;13129;48.012;10.352;2022-11-24T07:44:37;8.20;99.90
25170;DHT22;13129;48.012;10.352;2022-11-24T07:47:03;8.00;99.90
25170;DHT22;13129;48.012;10.352;2022-11-24T07:49:28;7.80;99.90
25170;DHT22;13129;48.012;10.352;2022-11-24T07:51:54;7.70;99.90
25170;DHT22;13129;48.012;10.352;2022-11-24T07:54:20;7.60;99.90
25170;DHT22;13129;48.012;10.352;2022-11-24T07:56:48;7.50;99.90
25170;DHT22;13129;48.012;10.352;2022-11-24T07:59:14;7.30;99.90
25170;DHT22;13129;48.012;10.352;2022-11-24T08:01:40;7.30;99.90
25170;DHT22;13129;48.012;10.352;2022-11-24T08:04:05;7.20;99.90
25170;DHT22;13129;48.012;10.352;2022-11-24T08:06:31;7.20;99.90
25170;DHT22;13129;48.012;10.352;2022-11-24T08:08:57;7.20;99.90
25170;DHT22;13129;48.012;10.352;2022-11-24T08:11:24;7.30;99.90
25170;DHT22;13129;48.012;10.352;2022-11-24T08:13:49;7.80;99.90
25170;DHT22;13129;48.012;10.352;2022-11-24T08:16:17;8.70;99.90
25170;DHT22;13129;48.012;10.352;2022-11-24T08:18:48;9.10;99.90
25170;DHT22;13129;48.012;10.352;2022-11-24T08:21:14;9.10;99.90
25170;DHT22;13129;48.012;10.352;2022-11-24T08:23:40;8.80;99.90
25170;DHT22;13129;48.012;10.352;2022-11-24T08:26:10;8.50;99.90
25170;DHT22;13129;48.012;10.352;2022-11-24T08:28:36;8.10;99.90
25170;DHT22;13129;48.012;10.352;2022-11-24T08:31:11;7.90;99.90
25170;DHT22;13129;48.012;10.352;2022-11-24T08:33:38;7.70;99.90
25170;DHT22;13129;48.012;10.352;2022-11-24T08:36:08;7.60;99.90
25170;DHT22;13129;48.012;10.352;2022-11-24T08:38:34;7.50;99.90
25170;DHT22;13129;48.012;10.352;2022-11-24T08:41:01;7.40;99.90
25170;DHT22;13129;48.012;10.352;2022-11-24T08:43:27;7.30;99.90
25170;DHT22;13129;48.012;10.352;2022-11-24T08:45:52;7.20;99.90
25170;DHT22;13129;48.012;10.352;2022-11-24T08:48:18;7.10;99.90
25170;DHT22;13129;48.012;10.352;2022-11-24T08:50:44;7.00;99.90
25170;DHT22;13129;48.012;10.352;2022-11-24T08:53:09;6.90;99.90
25170;DHT22;13129;48.012;10.352;2022-11-24T08:55:35;6.80;99.90
25170;DHT22;13129;48.012;10.352;2022-11-24T08:58:01;6.70;99.90
25170;DHT22;13129;48.012;10.352;2022-11-24T09:00:26;6.60;99.90
25170;DHT22;13129;48.012;10.352;2022-11-24T09:02:56;6.50;99.90
25170;DHT22;13129;48.012;10.352;2022-11-24T09:05:23;6.50;99.90
25170;DHT22;13129;48.012;10.352;2022-11-24T09:07:49;6.40;99.90
25170;DHT22;13129;48.012;10.352;2022-11-24T09:10:14;6.40;99.90
25170;DHT22;13129;48.012;10.352;2022-11-24T09:12:43;6.30;99.90
25170;DHT22;13129;48.012;10.352;2022-11-24T09:15:13;6.30;99.90
25170;DHT22;13129;48.012;10.352;2022-11-24T09:17:40;6.30;99.90
25170;DHT22;13129;48.012;10.352;2022-11-24T09:20:06;6.20;99.90
25170;DHT22;13129;48.012;10.352;2022-11-24T09:22:32;6.20;99.90
25170;DHT22;13129;48.012;10.352;2022-11-24T09:24:58;6.30;99.90
25170;DHT22;13129;48.012;10.352;2022-11-24T09:27:23;6.30;99.90
25170;DHT22;13129;48.012;10.352;2022-11-24T09:29:49;6.40;99.90
25170;DHT22;13129;48.012;10.352;2022-11-24T09:32:15;6.40;99.90
25170;DHT22;13129;48.012;10.352;2022-11-24T09:34:40;6.50;99.90
25170;DHT22;13129;48.012;10.352;2022-11-24T09:37:06;6.60;99.90
25170;DHT22;13129;48.012;10.352;2022-11-24T09:39:32;6.70;99.90
25170;DHT22;13129;48.012;10.352;2022-11-24T09:42:15;6.70;99.90
25170;DHT22;13129;48.012;10.352;2022-11-24T09:45:08;6.70;99.90
25170;DHT22;13129;48.012;10.352;2022-11-24T09:47:55;6.70;99.90
25170;DHT22;13129;48.012;10.352;2022-11-24T09:50:26;6.60;99.90
25170;DHT22;13129;48.012;10.352;2022-11-24T09:53:12;6.60;99.90
25170;DHT22;13129;48.012;10.352;2022-11-24T09:55:46;6.50;99.90
25170;DHT22;13129;48.012;10.352;2022-11-24T10:01:00;6.30;99.90
25170;DHT22;13129;48.012;10.352;2022-11-24T10:03:34;6.30;99.90
25170;DHT22;13129;48.012;10.352;2022-11-24T10:06:09;6.30;99.90
25170;DHT22;13129;48.012;10.352;2022-11-24T10:08:43;6.20;99.90
25170;DHT22;13129;48.012;10.352;2022-11-24T10:11:14;6.20;99.90
25170;DHT22;13129;48.012;10.352;2022-11-24T10:20:07;6.00;99.90
25170;DHT22;13129;48.012;10.352;2022-11-24T10:22:44;6.10;99.90
25170;DHT22;13129;48.012;10.352;2022-11-24T10:25:19;6.10;99.90
25170;DHT22;13129;48.012;10.352;2022-11-24T10:28:02;6.10;99.90
25170;DHT22;13129;48.012;10.352;2022-11-24T10:30:29;6.10;99.90
25170;DHT22;13129;48.012;10.352;2022-11-24T10:33:26;6.10;99.90
25170;DHT22;13129;48.012;10.352;2022-11-24T10:36:02;6.10;99.90
25170;DHT22;13129;48.012;10.352;2022-11-24T10:38:46;6.10;99.90
25170;DHT22;13129;48.012;10.352;2022-11-24T10:41:19;6.10;99.90
25170;DHT22;13129;48.012;10.352;2022-11-24T10:43:45;6.10;99.90
25170;DHT22;13129;48.012;10.352;2022-11-24T10:46:18;6.10;99.90
25170;DHT22;13129;48.012;10.352;2022-11-24T10:48:49;6.20;99.90
25170;DHT22;13129;48.012;10.352;2022-11-24T10:51:42;6.30;99.90
25170;DHT22;13129;48.012;10.352;2022-11-24T10:54:22;6.30;99.90
25170;DHT22;13129;48.012;10.352;2022-11-24T10:56:52;6.30;99.90
25170;DHT22;13129;48.012;10.352;2022-11-24T11:01:57;6.30;99.90
25170;DHT22;13129;48.012;10.352;2022-11-24T11:04:32;6.30;99.90
25170;DHT22;13129;48.012;10.352;2022-11-24T11:09:33;6.40;99.90
25170;DHT22;13129;48.012;10.352;2022-11-24T11:12:09;6.50;99.90
25170;DHT22;13129;48.012;10.352;2022-11-24T11:14:35;6.50;99.90
25170;DHT22;13129;48.012;10.352;2022-11-24T11:17:01;6.60;99.90
25170;DHT22;13129;48.012;10.352;2022-11-24T11:19:39;6.90;99.90
25170;DHT22;13129;48.012;10.352;2022-11-24T11:24:43;8.80;99.90
25170;DHT22;13129;48.012;10.352;2022-11-24T11:27:23;9.30;99.90
25170;DHT22;13129;48.012;10.352;2022-11-24T11:29:50;9.30;99.90
25170;DHT22;13129;48.012;10.352;2022-11-24T11:32:17;9.20;99.90
25170;DHT22;13129;48.012;10.352;2022-11-24T11:34:43;9.00;99.90
25170;DHT22;13129;48.012;10.352;2022-11-24T11:37:11;8.90;99.90
25170;DHT22;13129;48.012;10.352;2022-11-24T11:39:40;8.90;99.90
25170;DHT22;13129;48.012;10.352;2022-11-24T11:42:24;8.70;99.90
25170;DHT22;13129;48.012;10.352;2022-11-24T11:45:04;8.60;99.90
25170;DHT22;13129;48.012;10.352;2022-11-24T11:47:40;8.40;99.90
25170;DHT22;13129;48.012;10.352;2022-11-24T11:50:12;8.40;99.90
25170;DHT22;13129;48.012;10.352;2022-11-24T12:13:02;8.00;99.90
25170;DHT22;13129;48.012;10.352;2022-11-24T12:15:38;8.00;99.90
25170;DHT22;13129;48.012;10.352;2022-11-24T12:26:41;8.00;99.90
25170;DHT22;13129;48.012;10.352;2022-11-24T12:42:08;8.00;99.90
25170;DHT22;13129;48.012;10.352;2022-11-24T12:50:11;7.70;99.90
25170;DHT22;13129;48.012;10.352;2022-11-24T12:52:43;7.60;99.90
25170;DHT22;13129;48.012;10.352;2022-11-24T12:55:19;7.40;99.90
25170;DHT22;13129;48.012;10.352;2022-11-24T12:58:02;7.30;99.90
25170;DHT22;13129;48.012;10.352;2022-11-24T13:03:16;7.00;99.90
25170;DHT22;13129;48.012;10.352;2022-11-24T13:06:09;7.20;99.90
25170;DHT22;13129;48.012;10.352;2022-11-24T13:08:37;7.40;99.90
25170;DHT22;13129;48.012;10.352;2022-11-24T13:14:16;7.30;99.90
25170;DHT22;13129;48.012;10.352;2022-11-24T13:17:00;7.30;99.90
25170;DHT22;13129;48.012;10.352;2022-11-24T13:19:34;7.30;99.90
25170;DHT22;13129;48.012;10.352;2022-11-24T13:24:33;7.20;99.90
25170;DHT22;13129;48.012;10.352;2022-11-24T13:39:58;6.70;99.90
25170;DHT22;13129;48.012;10.352;2022-11-24T13:42:28;6.70;99.90
25170;DHT22;13129;48.012;10.352;2022-11-24T13:44:59;6.50;99.90
25170;DHT22;13129;48.012;10.352;2022-11-24T13:49:53;6.40;99.90
25170;DHT22;13129;48.012;10.352;2022-11-24T13:57:45;6.30;99.90
25170;DHT22;13129;48.012;10.352;2022-11-24T14:00:22;6.20;99.90
25170;DHT22;13129;48.012;10.352;2022-11-24T14:02:53;6.20;99.90
25170;DHT22;13129;48.012;10.352;2022-11-24T14:05:26;6.20;99.90
25170;DHT22;13129;48.012;10.352;2022-11-24T14:07:53;6.20;99.90
25170;DHT22;13129;48.012;10.352;2022-11-24T14:10:29;6.20;99.90
25170;DHT22;13129;48.012;10.352;2022-11-24T14:13:15;6.10;99.90
25170;DHT22;13129;48.012;10.352;2022-11-24T14:15:40;6.10;99.90
25170;DHT22;13129;48.012;10.352;2022-11-24T14:18:19;6.10;99.90
25170;DHT22;13129;48.012;10.352;2022-11-24T14:20:45;6.20;99.90
25170;DHT22;13129;48.012;10.352;2022-11-24T14:23:11;6.30;99.90
25170;DHT22;13129;48.012;10.352;2022-11-24T14:25:37;6.40;99.90
25170;DHT22;13129;48.012;10.352;2022-11-24T14:28:18;6.50;99.90
25170;DHT22;13129;48.012;10.352;2022-11-24T14:30:45;6.60;99.90
25170;DHT22;13129;48.012;10.352;2022-11-24T14:33:11;6.60;99.90
25170;DHT22;13129;48.012;10.352;2022-11-24T14:35:46;6.60;99.90
25170;DHT22;13129;48.012;10.352;2022-11-24T14:38:12;6.60;99.90
25170;DHT22;13129;48.012;10.352;2022-11-24T14:43:12;6.70;99.90
25170;DHT22;13129;48.012;10.352;2022-11-24T14:45:47;6.70;99.90
25170;DHT22;13129;48.012;10.352;2022-11-24T14:48:15;6.80;99.90
25170;DHT22;13129;48.012;10.352;2022-11-24T14:50:41;6.80;99.90
25170;DHT22;13129;48.012;10.352;2022-11-24T14:53:12;6.80;99.90
25170;DHT22;13129;48.012;10.352;2022-11-24T14:55:39;6.70;99.90
25170;DHT22;13129;48.012;10.352;2022-11-24T14:58:26;6.70;99.90
25170;DHT22;13129;48.012;10.352;2022-11-24T15:01:29;6.70;99.90
25170;DHT22;13129;48.012;10.352;2022-11-24T15:04:27;6.70;99.90
25170;DHT22;13129;48.012;10.352;2022-11-24T15:07:18;6.70;99.90
25170;DHT22;13129;48.012;10.352;2022-11-24T15:09:54;6.70;99.90
25170;DHT22;13129;48.012;10.352;2022-11-24T15:12:28;6.70;99.90
25170;DHT22;13129;48.012;10.352;2022-11-24T15:17:45;6.90;99.90
25170;DHT22;13129;48.012;10.352;2022-11-24T15:23:34;7.00;99.90
25170;DHT22;13129;48.012;10.352;2022-11-24T15:28:29;6.60;99.90
25170;DHT22;13129;48.012;10.352;2022-11-24T15:31:07;6.50;99.90
25170;DHT22;13129;48.012;10.352;2022-11-24T15:33:33;6.40;99.90
25170;DHT22;13129;48.012;10.352;2022-11-24T15:35:59;6.30;99.90
25170;DHT22;13129;48.012;10.352;2022-11-24T15:38:25;6.30;99.90
25170;DHT22;13129;48.012;10.352;2022-11-24T15:40:56;6.20;99.90
25170;DHT22;13129;48.012;10.352;2022-11-24T15:45:59;6.10;99.90
25170;DHT22;13129;48.012;10.352;2022-11-24T15:48:26;6.00;99.90
25170;DHT22;13129;48.012;10.352;2022-11-24T15:50:52;6.00;99.90
25170;DHT22;13129;48.012;10.352;2022-11-24T15:53:24;5.90;99.90
25170;DHT22;13129;48.012;10.352;2022-11-24T15:55:52;5.80;99.90
25170;DHT22;13129;48.012;10.352;2022-11-24T15:58:20;5.80;99.90
25170;DHT22;13129;48.012;10.352;2022-11-24T16:00:46;5.70;99.90
25170;DHT22;13129;48.012;10.352;2022-11-24T16:03:12;5.70;99.90
25170;DHT22;13129;48.012;10.352;2022-11-24T16:05:38;5.70;99.90
25170;DHT22;13129;48.012;10.352;2022-11-24T16:08:05;5.60;99.90
25170;DHT22;13129;48.012;10.352;2022-11-24T16:10:36;5.50;99.90
25170;DHT22;13129;48.012;10.352;2022-11-24T16:13:02;5.50;99.90
25170;DHT22;13129;48.012;10.352;2022-11-24T16:15:28;5.40;99.90
25170;DHT22;13129;48.012;10.352;2022-11-24T16:17:54;5.30;99.90
25170;DHT22;13129;48.012;10.352;2022-11-24T16:20:19;5.20;99.90
25170;DHT22;13129;48.012;10.352;2022-11-24T16:22:45;5.20;99.90
25170;DHT22;13129;48.012;10.352;2022-11-24T16:25:12;5.20;99.90
25170;DHT22;13129;48.012;10.352;2022-11-24T16:27:38;5.10;99.90
25170;DHT22;13129;48.012;10.352;2022-11-24T16:30:04;5.10;99.90
25170;DHT22;13129;48.012;10.352;2022-11-24T16:32:30;5.10;99.90
25170;DHT22;13129;48.012;10.352;2022-11-24T16:34:56;5.10;99.90
25170;DHT22;13129;48.012;10.352;2022-11-24T16:37:22;5.20;99.90
25170;DHT22;13129;48.012;10.352;2022-11-24T16:39:48;5.20;99.90
25170;DHT22;13129;48.012;10.352;2022-11-24T16:42:14;5.30;99.90
25170;DHT22;13129;48.012;10.352;2022-11-24T16:44:39;5.30;99.90
25170;DHT22;13129;48.012;10.352;2022-11-24T16:47:06;5.30;99.90
25170;DHT22;13129;48.012;10.352;2022-11-24T16:49:32;5.40;99.90
25170;DHT22;13129;48.012;10.352;2022-11-24T16:51:58;5.40;99.90
25170;DHT22;13129;48.012;10.352;2022-11-24T16:54:23;5.40;99.90
25170;DHT22;13129;48.012;10.352;2022-11-24T16:56:50;5.40;99.90
25170;DHT22;13129;48.012;10.352;2022-11-24T16:59:16;5.40;99.90
25170;DHT22;13129;48.012;10.352;2022-11-24T17:01:41;5.40;99.90
25170;DHT22;13129;48.012;10.352;2022-11-24T17:04:11;5.40;99.90
25170;DHT22;13129;48.012;10.352;2022-11-24T17:06:37;5.40;99.90
25170;DHT22;13129;48.012;10.352;2022-11-24T17:09:02;5.30;99.90
25170;DHT22;13129;48.012;10.352;2022-11-24T17:11:28;5.30;99.90
25170;DHT22;13129;48.012;10.352;2022-11-24T17:13:57;5.30;99.90
25170;DHT22;13129;48.012;10.352;2022-11-24T17:16:24;5.20;99.90
25170;DHT22;13129;48.012;10.352;2022-11-24T17:18:50;5.20;99.90
25170;DHT22;13129;48.012;10.352;2022-11-24T17:21:23;5.10;99.90
25170;DHT22;13129;48.012;10.352;2022-11-24T17:23:57;5.00;99.90
25170;DHT22;13129;48.012;10.352;2022-11-24T17:26:24;4.90;99.90
25170;DHT22;13129;48.012;10.352;2022-11-24T17:28:50;4.80;99.90
25170;DHT22;13129;48.012;10.352;2022-11-24T17:31:19;4.70;99.90
25170;DHT22;13129;48.012;10.352;2022-11-24T17:33:49;4.70;99.90
25170;DHT22;13129;48.012;10.352;2022-11-24T17:36:16;4.60;99.90
25170;DHT22;13129;48.012;10.352;2022-11-24T17:38:41;4.50;99.90
25170;DHT22;13129;48.012;10.352;2022-11-24T17:41:07;4.50;99.90
25170;DHT22;13129;48.012;10.352;2022-11-24T17:43:33;4.40;99.90
25170;DHT22;13129;48.012;10.352;2022-11-24T17:46:00;4.40;99.90
25170;DHT22;13129;48.012;10.352;2022-11-24T17:48:27;4.30;99.90
25170;DHT22;13129;48.012;10.352;2022-11-24T17:51:03;4.30;99.90
25170;DHT22;13129;48.012;10.352;2022-11-24T17:53:29;4.30;99.90
25170;DHT22;13129;48.012;10.352;2022-11-24T17:55:58;4.20;99.90
25170;DHT22;13129;48.012;10.352;2022-11-24T17:58:28;4.10;99.90
25170;DHT22;13129;48.012;10.352;2022-11-24T18:00:55;4.10;99.90
25170;DHT22;13129;48.012;10.352;2022-11-24T18:03:21;4.10;99.90
25170;DHT22;13129;48.012;10.352;2022-11-24T18:05:47;4.00;99.90
25170;DHT22;13129;48.012;10.352;2022-11-24T18:08:13;4.00;99.90
25170;DHT22;13129;48.012;10.352;2022-11-24T18:10:39;3.90;99.90
25170;DHT22;13129;48.012;10.352;2022-11-24T18:13:05;3.90;99.90
25170;DHT22;13129;48.012;10.352;2022-11-24T18:15:34;3.80;99.90
25170;DHT22;13129;48.012;10.352;2022-11-24T18:18:01;3.80;99.90
25170;DHT22;13129;48.012;10.352;2022-11-24T18:20:27;3.70;99.90
25170;DHT22;13129;48.012;10.352;2022-11-24T18:22:56;3.60;99.90
25170;DHT22;13129;48.012;10.352;2022-11-24T18:25:22;3.60;99.90
25170;DHT22;13129;48.012;10.352;2022-11-24T18:27:48;3.50;99.90
25170;DHT22;13129;48.012;10.352;2022-11-24T18:30:14;3.40;99.90
25170;DHT22;13129;48.012;10.352;2022-11-24T18:32:39;3.40;99.90
25170;DHT22;13129;48.012;10.352;2022-11-24T18:35:05;3.30;99.90
25170;DHT22;13129;48.012;10.352;2022-11-24T18:37:31;3.20;99.90
25170;DHT22;13129;48.012;10.352;2022-11-24T18:39:58;3.00;99.90
25170;DHT22;13129;48.012;10.352;2022-11-24T18:42:24;2.80;99.90
25170;DHT22;13129;48.012;10.352;2022-11-24T18:44:50;2.70;99.90
25170;DHT22;13129;48.012;10.352;2022-11-24T18:47:16;2.60;99.90
25170;DHT22;13129;48.012;10.352;2022-11-24T18:49:42;2.50;99.90
25170;DHT22;13129;48.012;10.352;2022-11-24T18:52:07;2.50;99.90
25170;DHT22;13129;48.012;10.352;2022-11-24T18:54:33;2.40;99.90
25170;DHT22;13129;48.012;10.352;2022-11-24T18:56:58;2.40;99.90
25170;DHT22;13129;48.012;10.352;2022-11-24T18:59:24;2.30;99.90
25170;DHT22;13129;48.012;10.352;2022-11-24T19:01:50;2.20;99.90
25170;DHT22;13129;48.012;10.352;2022-11-24T19:04:16;2.20;99.90
25170;DHT22;13129;48.012;10.352;2022-11-24T19:06:42;2.10;99.90
25170;DHT22;13129;48.012;10.352;2022-11-24T19:09:13;2.00;99.90
25170;DHT22;13129;48.012;10.352;2022-11-24T19:11:41;2.00;99.90
25170;DHT22;13129;48.012;10.352;2022-11-24T19:14:10;2.00;99.90
25170;DHT22;13129;48.012;10.352;2022-11-24T19:16:36;2.10;99.90
25170;DHT22;13129;48.012;10.352;2022-11-24T19:19:02;2.10;99.90
25170;DHT22;13129;48.012;10.352;2022-11-24T19:21:35;2.10;99.90
25170;DHT22;13129;48.012;10.352;2022-11-24T19:24:02;2.20;99.90
25170;DHT22;13129;48.012;10.352;2022-11-24T19:26:28;2.20;99.90
25170;DHT22;13129;48.012;10.352;2022-11-24T19:28:54;2.30;99.90
25170;DHT22;13129;48.012;10.352;2022-11-24T19:31:20;2.30;99.90
25170;DHT22;13129;48.012;10.352;2022-11-24T19:33:46;2.20;99.90
25170;DHT22;13129;48.012;10.352;2022-11-24T19:36:17;2.30;99.90
25170;DHT22;13129;48.012;10.352;2022-11-24T19:38:54;2.30;99.90
25170;DHT22;13129;48.012;10.352;2022-11-24T19:41:22;2.30;99.90
25170;DHT22;13129;48.012;10.352;2022-11-24T19:43:48;2.30;99.90
25170;DHT22;13129;48.012;10.352;2022-11-24T19:46:15;2.30;99.90
25170;DHT22;13129;48.012;10.352;2022-11-24T19:48:44;2.20;99.90
25170;DHT22;13129;48.012;10.352;2022-11-24T19:51:15;2.20;99.90
25170;DHT22;13129;48.012;10.352;2022-11-24T19:53:42;2.10;99.90
25170;DHT22;13129;48.012;10.352;2022-11-24T19:56:11;2.10;99.90
25170;DHT22;13129;48.012;10.352;2022-11-24T19:58:37;2.10;99.90
25170;DHT22;13129;48.012;10.352;2022-11-24T20:01:14;2.10;99.90
25170;DHT22;13129;48.012;10.352;2022-11-24T20:03:41;2.00;99.90
25170;DHT22;13129;48.012;10.352;2022-11-24T20:06:08;2.10;99.90
25170;DHT22;13129;48.012;10.352;2022-11-24T20:08:36;2.10;99.90
25170;DHT22;13129;48.012;10.352;2022-11-24T20:11:13;2.10;99.90
25170;DHT22;13129;48.012;10.352;2022-11-24T20:13:41;2.10;99.90
25170;DHT22;13129;48.012;10.352;2022-11-24T20:16:16;2.00;99.90
25170;DHT22;13129;48.012;10.352;2022-11-24T20:18:43;2.10;99.90
25170;DHT22;13129;48.012;10.352;2022-11-24T20:21:10;2.00;99.90
25170;DHT22;13129;48.012;10.352;2022-11-24T20:23:37;2.00;99.90
25170;DHT22;13129;48.012;10.352;2022-11-24T20:26:03;2.00;99.90
25170;DHT22;13129;48.012;10.352;2022-11-24T20:28:30;2.00;99.90
25170;DHT22;13129;48.012;10.352;2022-11-24T20:31:03;2.00;99.90
25170;DHT22;13129;48.012;10.352;2022-11-24T20:33:29;2.00;99.90
25170;DHT22;13129;48.012;10.352;2022-11-24T20:36:00;2.00;99.90
25170;DHT22;13129;48.012;10.352;2022-11-24T20:38:27;2.00;99.90
25170;DHT22;13129;48.012;10.352;2022-11-24T20:40:54;2.00;99.90
25170;DHT22;13129;48.012;10.352;2022-11-24T20:43:24;1.90;99.90
25170;DHT22;13129;48.012;10.352;2022-11-24T20:45:52;1.80;99.90
25170;DHT22;13129;48.012;10.352;2022-11-24T20:48:18;1.80;99.90
25170;DHT22;13129;48.012;10.352;2022-11-24T20:50:43;1.80;99.90
25170;DHT22;13129;48.012;10.352;2022-11-24T20:53:09;1.70;99.90
25170;DHT22;13129;48.012;10.352;2022-11-24T20:55:34;1.80;99.90
25170;DHT22;13129;48.012;10.352;2022-11-24T20:58:00;1.80;99.90
25170;DHT22;13129;48.012;10.352;2022-11-24T21:00:26;1.80;99.90
25170;DHT22;13129;48.012;10.352;2022-11-24T21:02:51;1.80;99.90
25170;DHT22;13129;48.012;10.352;2022-11-24T21:05:17;1.70;99.90
25170;DHT22;13129;48.012;10.352;2022-11-24T21:07:42;1.70;99.90
25170;DHT22;13129;48.012;10.352;2022-11-24T21:10:08;1.70;99.90
25170;DHT22;13129;48.012;10.352;2022-11-24T21:12:34;1.70;99.90
25170;DHT22;13129;48.012;10.352;2022-11-24T21:14:59;1.70;99.90
25170;DHT22;13129;48.012;10.352;2022-11-24T21:17:25;1.70;99.90
25170;DHT22;13129;48.012;10.352;2022-11-24T21:19:51;1.70;99.90
25170;DHT22;13129;48.012;10.352;2022-11-24T21:22:16;1.50;99.90
25170;DHT22;13129;48.012;10.352;2022-11-24T21:24:42;1.40;99.90
25170;DHT22;13129;48.012;10.352;2022-11-24T21:27:07;1.30;99.90
25170;DHT22;13129;48.012;10.352;2022-11-24T21:29:33;1.30;99.90
25170;DHT22;13129;48.012;10.352;2022-11-24T21:31:59;1.20;99.90
25170;DHT22;13129;48.012;10.352;2022-11-24T21:34:24;1.00;99.90
25170;DHT22;13129;48.012;10.352;2022-11-24T21:36:50;0.90;99.90
25170;DHT22;13129;48.012;10.352;2022-11-24T21:39:16;0.80;99.90
25170;DHT22;13129;48.012;10.352;2022-11-24T21:41:42;0.80;99.90
25170;DHT22;13129;48.012;10.352;2022-11-24T21:44:10;0.70;99.90
25170;DHT22;13129;48.012;10.352;2022-11-24T21:46:36;0.70;99.90
25170;DHT22;13129;48.012;10.352;2022-11-24T21:49:02;0.60;99.90
25170;DHT22;13129;48.012;10.352;2022-11-24T21:51:28;0.60;99.90
25170;DHT22;13129;48.012;10.352;2022-11-24T21:53:54;0.60;99.90
25170;DHT22;13129;48.012;10.352;2022-11-24T21:56:21;0.60;99.90
25170;DHT22;13129;48.012;10.352;2022-11-24T21:58:55;0.50;99.90